createdAt,value
2023-04-06T00:03:52.638Z,5.20
2023-04-06T00:09:14.922Z,5.30
2023-04-06T00:14:37.324Z,5.13
2023-04-06T00:19:59.522Z,4.20
2023-04-06T00:25:22.050Z,3.87
2023-04-06T00:30:44.429Z,4.53
2023-04-06T00:36:07.208Z,4.40
2023-04-06T00:41:29.639Z,4.97
2023-04-06T00:46:52.115Z,5.00
2023-04-06T00:52:14.991Z,5.17
2023-04-06T00:57:39.284Z,5.07
2023-04-06T01:03:02.271Z,5.17
2023-04-06T01:08:33.010Z,5.13
2023-04-06T01:14:08.853Z,4.13
2023-04-06T01:20:00.886Z,4.43
2023-04-06T01:25:27.271Z,5.73
2023-04-06T01:30:59.729Z,6.07
2023-04-06T01:36:45.467Z,6.37
2023-04-06T01:42:27.186Z,6.77
2023-04-06T01:47:49.486Z,6.10
2023-04-06T01:53:12.221Z,6.80
2023-04-06T01:58:37.055Z,6.00
2023-04-06T02:03:59.895Z,5.60
2023-04-06T02:09:22.747Z,5.50
2023-04-06T02:14:45.230Z,5.37
2023-04-06T02:20:08.966Z,4.80
2023-04-06T02:25:34.211Z,4.73
2023-04-06T02:30:56.634Z,4.20
2023-04-06T02:36:22.597Z,4.43
2023-04-06T02:41:44.880Z,4.07
2023-04-06T02:47:10.520Z,4.33
2023-04-06T02:52:34.839Z,4.30
2023-04-06T02:57:57.758Z,4.10
2023-04-06T03:03:25.631Z,4.03
2023-04-06T03:08:48.411Z,3.80
2023-04-06T03:14:11.264Z,4.47
2023-04-06T03:19:33.971Z,3.87
2023-04-06T03:24:58.200Z,3.80
2023-04-06T03:30:21.761Z,4.13
2023-04-06T03:35:44.378Z,3.90
2023-04-06T03:41:06.616Z,4.03
2023-04-06T03:46:29.027Z,3.83
2023-04-06T03:51:54.200Z,3.63
2023-04-06T03:57:16.816Z,3.23
2023-04-06T04:02:39.565Z,3.83
2023-04-06T04:08:02.112Z,3.43
2023-04-06T04:13:24.307Z,4.50
2023-04-06T04:18:49.702Z,3.90
2023-04-06T04:24:12.517Z,3.47
2023-04-06T04:29:35.640Z,3.23
2023-04-06T04:35:02.519Z,3.60
2023-04-06T04:40:32.712Z,3.93
2023-04-06T04:46:05.518Z,4.60
2023-04-06T04:51:34.823Z,4.37
2023-04-06T04:57:09.197Z,4.27
2023-04-06T05:02:37.314Z,3.87
2023-04-06T05:08:09.220Z,3.50
2023-04-06T05:13:37.775Z,4.17
2023-04-06T05:19:07.024Z,4.20
2023-04-06T05:24:36.341Z,4.13
2023-04-06T05:30:01.404Z,4.07
2023-04-06T05:35:26.750Z,3.93
2023-04-06T05:40:53.591Z,4.07
2023-04-06T05:46:20.938Z,4.53
2023-04-06T05:51:43.738Z,3.93
2023-04-06T05:57:06.873Z,4.50
2023-04-06T06:02:31.959Z,4.00
2023-04-06T06:07:54.362Z,4.87
2023-04-06T06:13:17.347Z,5.00
2023-04-06T06:18:40.157Z,4.80
2023-04-06T06:24:03.987Z,4.97
2023-04-06T06:29:26.704Z,4.73
2023-04-06T06:34:49.163Z,4.93
2023-04-06T06:40:14.386Z,5.13
2023-04-06T06:45:38.549Z,5.30
2023-04-06T06:51:01.503Z,4.37
2023-04-06T06:56:23.759Z,4.93
2023-04-06T07:01:47.724Z,4.53
2023-04-06T07:07:10.232Z,4.90
2023-04-06T07:12:34.990Z,5.20
2023-04-06T07:17:58.467Z,4.87
2023-04-06T07:23:21.505Z,4.30
2023-04-06T07:28:44.195Z,3.90
2023-04-06T07:34:08.975Z,4.33
2023-04-06T07:39:32.592Z,3.90
2023-04-06T07:44:56.471Z,3.93
2023-04-06T07:50:19.219Z,3.90
2023-04-06T07:55:42.385Z,3.90
2023-04-06T08:01:04.960Z,3.27
2023-04-06T08:06:27.388Z,3.83
2023-04-06T08:11:52.690Z,3.60
2023-04-06T08:17:20.234Z,3.70
2023-04-06T08:22:42.906Z,3.77
2023-04-06T08:28:05.374Z,2.80
2023-04-06T08:33:27.537Z,2.70
2023-04-06T08:38:50.684Z,2.57
2023-04-06T08:44:13.370Z,2.20
2023-04-06T08:49:38.629Z,2.30
2023-04-06T08:55:02.105Z,2.63
2023-04-06T09:00:26.783Z,3.23
2023-04-06T09:05:49.338Z,2.90
2023-04-06T09:11:12.007Z,2.47
2023-04-06T09:16:41.940Z,2.40
2023-04-06T09:22:06.049Z,2.30
2023-04-06T09:27:33.739Z,2.60
2023-04-06T09:32:57.952Z,2.43
2023-04-06T09:38:20.587Z,2.40
2023-04-06T09:43:45.427Z,2.10
2023-04-06T09:49:11.907Z,2.20
2023-04-06T09:54:37.177Z,2.17
2023-04-06T10:00:04.898Z,2.27
2023-04-06T10:05:48.216Z,2.03
2023-04-06T10:11:12.099Z,1.90
2023-04-06T10:16:35.092Z,2.20
2023-04-06T10:22:01.745Z,2.10
2023-04-06T10:27:31.606Z,2.20
2023-04-06T10:32:54.196Z,2.50
2023-04-06T10:38:21.110Z,2.23
2023-04-06T10:43:43.722Z,2.03
2023-04-06T10:49:13.587Z,2.37
2023-04-06T10:54:42.732Z,2.20
2023-04-06T11:00:06.974Z,2.33
2023-04-06T11:05:29.317Z,2.10
2023-04-06T11:10:51.767Z,2.40
2023-04-06T11:16:21.568Z,2.27
2023-04-06T11:21:49.753Z,2.20
2023-04-06T11:27:12.821Z,2.33
2023-04-06T11:32:45.658Z,2.53
2023-04-06T11:38:08.081Z,2.67
2023-04-06T11:43:33.034Z,2.30
2023-04-06T11:49:00.596Z,1.80
2023-04-06T11:54:35.936Z,2.27
2023-04-06T11:59:58.447Z,2.73
2023-04-06T12:05:21.158Z,1.80
2023-04-06T12:10:43.386Z,2.00
2023-04-06T12:16:06.733Z,1.97
2023-04-06T12:21:29.513Z,2.00
2023-04-06T12:26:59.502Z,1.80
2023-04-06T12:32:25.634Z,1.80
2023-04-06T12:37:48.325Z,2.20
2023-04-06T12:43:11.040Z,1.90
2023-04-06T12:48:33.532Z,2.17
2023-04-06T12:53:56.143Z,2.40
2023-04-06T12:59:18.831Z,1.90
2023-04-06T13:04:41.337Z,1.80
2023-04-06T13:10:03.805Z,2.23
2023-04-06T13:15:26.663Z,2.13
2023-04-06T13:20:49.594Z,1.80
2023-04-06T13:26:12.504Z,1.90
2023-04-06T13:31:34.981Z,2.07
2023-04-06T13:36:57.368Z,2.10
2023-04-06T13:42:19.932Z,1.90
2023-04-06T13:47:42.261Z,1.90
2023-04-06T13:53:04.614Z,2.40
2023-04-06T13:58:27.092Z,1.80
2023-04-06T14:03:50.310Z,1.93
2023-04-06T14:09:12.713Z,1.70
2023-04-06T14:14:34.976Z,1.87
2023-04-06T14:19:57.390Z,2.30
2023-04-06T14:25:19.726Z,1.93
2023-04-06T14:30:42.034Z,1.90
2023-04-06T14:36:05.976Z,2.07
2023-04-06T14:41:28.491Z,2.03
2023-04-06T14:46:51.253Z,2.07
2023-04-06T14:52:13.843Z,2.30
2023-04-06T14:57:36.378Z,1.97
2023-04-06T15:02:58.959Z,1.90
2023-04-06T15:08:22.302Z,2.20
2023-04-06T15:13:44.709Z,2.40
2023-04-06T15:19:07.331Z,2.53
2023-04-06T15:24:29.680Z,1.90
2023-04-06T15:29:51.862Z,2.10
2023-04-06T15:35:14.699Z,2.40
2023-04-06T15:40:47.697Z,2.10
2023-04-06T15:46:12.821Z,2.33
2023-04-06T15:51:36.454Z,2.23
2023-04-06T15:56:58.826Z,2.10
2023-04-06T16:02:23.171Z,2.07
2023-04-06T16:07:46.111Z,2.50
2023-04-06T16:13:09.405Z,2.43
2023-04-06T16:18:33.550Z,2.80
2023-04-06T16:23:59.255Z,2.13
2023-04-06T16:29:23.175Z,2.23
2023-04-06T16:34:46.727Z,2.03
2023-04-06T16:40:10.026Z,2.23
2023-04-06T16:45:32.651Z,2.70
2023-04-06T16:50:55.277Z,2.90
2023-04-06T16:56:17.768Z,3.57
2023-04-06T17:01:40.266Z,3.03
2023-04-06T17:07:02.522Z,3.00
2023-04-06T17:12:25.043Z,3.17
2023-04-06T17:17:47.329Z,3.77
2023-04-06T17:23:11.876Z,3.20
2023-04-06T17:28:34.244Z,3.03
2023-04-06T17:33:56.442Z,3.77
2023-04-06T17:39:18.757Z,3.40
2023-04-06T17:44:41.318Z,3.20
2023-04-06T17:50:03.735Z,3.20
2023-04-06T17:55:26.210Z,4.93
2023-04-06T18:00:48.453Z,3.20
2023-04-06T18:06:15.784Z,3.40
2023-04-06T18:11:38.290Z,3.63
2023-04-06T18:17:00.927Z,4.40
2023-04-06T18:22:23.382Z,4.03
2023-04-06T18:27:46.083Z,3.40
2023-04-06T18:33:08.589Z,3.93
2023-04-06T18:38:30.916Z,4.00
2023-04-06T18:43:53.328Z,4.07
2023-04-06T18:49:16.096Z,4.13
2023-04-06T18:54:38.318Z,4.07
2023-04-06T19:00:01.649Z,4.33
2023-04-06T19:05:24.380Z,3.97
2023-04-06T19:10:48.332Z,4.47
2023-04-06T19:16:11.343Z,4.20
2023-04-06T19:21:33.838Z,4.30
2023-04-06T19:26:57.184Z,4.30
2023-04-06T19:32:19.521Z,4.67
2023-04-06T19:37:43.133Z,4.37
2023-04-06T19:43:05.803Z,4.43
2023-04-06T19:48:28.017Z,4.53
2023-04-06T19:53:50.634Z,4.60
2023-04-06T19:59:12.928Z,4.63
2023-04-06T20:04:35.612Z,4.73
2023-04-06T20:09:58.263Z,4.53
2023-04-06T20:15:20.666Z,4.30
2023-04-06T20:20:44.752Z,4.80
2023-04-06T20:26:10.369Z,4.50
2023-04-06T20:31:33.724Z,4.27
2023-04-06T20:36:56.682Z,4.83
2023-04-06T20:42:19.165Z,5.63
2023-04-06T20:47:41.539Z,5.97
2023-04-06T20:53:04.081Z,5.50
2023-04-06T20:58:27.161Z,5.60
2023-04-06T21:03:49.806Z,5.70
2023-04-06T21:09:12.009Z,6.13
2023-04-06T21:14:34.654Z,6.70
2023-04-06T21:19:57.366Z,5.77
2023-04-06T21:25:19.561Z,5.53
2023-04-06T21:30:43.015Z,5.30
2023-04-06T21:36:08.847Z,5.13
2023-04-06T21:41:32.262Z,5.10
2023-04-06T21:46:54.611Z,4.77
2023-04-06T21:52:16.759Z,4.63
2023-04-06T21:57:38.834Z,5.70
2023-04-06T22:03:01.324Z,5.57
2023-04-06T22:08:33.868Z,5.93
2023-04-06T22:13:56.991Z,6.07
2023-04-06T22:19:19.257Z,6.53
2023-04-06T22:24:41.832Z,6.70
2023-04-06T22:30:05.363Z,6.73
2023-04-06T22:35:27.684Z,7.53
2023-04-06T22:40:49.891Z,7.67
2023-04-06T22:46:12.144Z,7.67
2023-04-06T22:51:34.290Z,7.57
2023-04-06T22:56:56.767Z,8.63
2023-04-06T23:02:19.299Z,8.97
2023-04-06T23:07:41.644Z,7.70
2023-04-06T23:13:04.243Z,7.43
2023-04-06T23:18:26.420Z,7.17
2023-04-06T23:23:48.882Z,7.83
2023-04-06T23:29:11.625Z,7.83
2023-04-06T23:34:34.166Z,8.37
2023-04-06T23:39:56.362Z,7.80
2023-04-06T23:45:18.726Z,8.03
2023-04-06T23:50:41.515Z,8.40
2023-04-06T23:56:03.997Z,8.10
